createdAt,value
2016-09-04T00:04:07.988Z,1006.00
2016-09-04T00:09:04.552Z,1005.97
2016-09-04T00:14:01.152Z,1005.97
2016-09-04T00:18:57.662Z,1006.22
2016-09-04T00:23:54.331Z,1006.05
2016-09-04T00:28:51.437Z,1006.02
2016-09-04T00:33:48.146Z,1006.00
2016-09-04T00:38:44.742Z,1005.91
2016-09-04T00:43:41.512Z,1005.98
2016-09-04T00:48:40.733Z,1005.84
2016-09-04T00:53:36.648Z,1005.73
2016-09-04T00:58:33.154Z,1005.81
2016-09-04T01:03:32.551Z,1005.62
2016-09-04T01:08:28.764Z,1005.65
2016-09-04T01:13:25.417Z,1005.69
2016-09-04T01:18:22.008Z,1005.66
2016-09-04T01:23:18.581Z,1005.61
2016-09-04T01:28:15.266Z,1005.60
2016-09-04T01:33:11.813Z,1005.61
2016-09-04T01:38:08.439Z,1005.50
2016-09-04T01:43:06.143Z,1005.57
2016-09-04T01:48:02.523Z,1005.54
2016-09-04T01:52:58.919Z,1005.44
2016-09-04T01:57:55.527Z,1005.45
2016-09-04T02:02:51.969Z,1005.39
2016-09-04T02:07:48.591Z,1005.45
2016-09-04T02:12:45.131Z,1005.39
2016-09-04T02:17:41.854Z,1005.43
2016-09-04T02:22:39.592Z,1005.29
2016-09-04T02:27:35.697Z,1005.23
2016-09-04T02:32:32.187Z,1005.19
2016-09-04T02:37:28.925Z,1005.16
2016-09-04T02:42:25.350Z,1005.15
2016-09-04T02:47:21.929Z,1005.08
2016-09-04T02:52:18.561Z,1005.08
2016-09-04T02:57:15.299Z,1005.06
2016-09-04T03:02:11.915Z,1005.04
2016-09-04T03:07:08.592Z,1004.96
2016-09-04T03:12:05.612Z,1004.97
2016-09-04T03:17:02.293Z,1004.87
2016-09-04T03:21:58.831Z,1004.94
2016-09-04T03:26:55.778Z,1004.99
2016-09-04T03:31:52.186Z,1004.91
2016-09-04T03:36:51.765Z,1004.93
2016-09-04T03:41:47.882Z,1004.98
2016-09-04T03:46:44.524Z,1004.94
2016-09-04T03:51:41.120Z,1004.85
2016-09-04T03:56:37.754Z,1004.75
2016-09-04T04:01:34.352Z,1004.73
2016-09-04T04:06:31.667Z,1004.61
2016-09-04T04:11:28.436Z,1004.66
2016-09-04T04:16:25.044Z,1004.62
2016-09-04T04:21:21.546Z,1004.71
2016-09-04T04:26:18.110Z,1004.69
2016-09-04T04:31:14.761Z,1004.77
2016-09-04T04:36:11.426Z,1004.73
2016-09-04T04:41:07.900Z,1004.88
2016-09-04T04:46:06.760Z,1004.90
2016-09-04T04:51:02.650Z,1004.92
2016-09-04T04:55:59.217Z,1004.84
2016-09-04T05:00:55.824Z,1004.78
2016-09-04T05:05:52.508Z,1004.78
2016-09-04T05:10:49.119Z,1004.75
2016-09-04T05:15:45.768Z,1004.67
2016-09-04T05:20:42.315Z,1004.60
2016-09-04T05:25:39.119Z,1004.67
2016-09-04T05:30:35.643Z,1004.63
2016-09-04T05:35:32.259Z,1004.68
2016-09-04T05:40:28.997Z,1004.64
2016-09-04T05:45:25.655Z,1004.60
2016-09-04T05:50:22.322Z,1004.64
2016-09-04T05:55:19.274Z,1004.65
2016-09-04T06:00:15.853Z,1004.73
2016-09-04T06:05:12.459Z,1004.79
2016-09-04T06:10:08.927Z,1004.92
2016-09-04T06:15:05.889Z,1004.92
2016-09-04T06:20:02.508Z,1004.80
2016-09-04T06:24:59.218Z,1004.84
2016-09-04T06:29:55.773Z,1004.76
2016-09-04T06:34:52.327Z,1004.69
2016-09-04T06:39:48.870Z,1004.63
2016-09-04T06:44:45.411Z,1004.51
2016-09-04T06:49:42.041Z,1004.45
2016-09-04T06:54:39.095Z,1004.34
2016-09-04T06:59:35.722Z,1004.37
2016-09-04T07:04:32.539Z,1004.30
2016-09-04T07:09:29.502Z,1004.34
2016-09-04T07:14:28.689Z,1004.32
2016-09-04T07:19:24.651Z,1004.34
2016-09-04T07:24:21.678Z,1004.29
2016-09-04T07:29:18.804Z,1004.32
2016-09-04T07:34:15.317Z,1004.27
2016-09-04T07:39:12.048Z,1004.09
2016-09-04T07:44:08.809Z,1004.04
2016-09-04T07:49:05.505Z,1004.01
2016-09-04T07:54:04.308Z,1004.01
2016-09-04T07:59:00.647Z,1003.75
2016-09-04T08:03:57.418Z,1003.91
2016-09-04T08:08:54.193Z,1003.96
2016-09-04T08:13:50.642Z,1003.86
2016-09-04T08:18:47.436Z,1003.78
2016-09-04T08:23:44.087Z,1003.70
2016-09-04T08:28:40.730Z,1003.69
2016-09-04T08:33:37.799Z,1003.70
2016-09-04T08:38:34.668Z,1003.44
2016-09-04T08:43:31.350Z,1003.35
2016-09-04T08:48:28.168Z,1003.15
2016-09-04T08:53:25.695Z,1003.30
2016-09-04T08:58:22.386Z,1003.22
2016-09-04T09:03:19.104Z,1003.29
2016-09-04T09:08:16.014Z,1003.30
2016-09-04T09:13:12.920Z,1003.08
2016-09-04T09:18:09.482Z,1003.06
2016-09-04T09:23:05.976Z,1002.82
2016-09-04T09:28:02.651Z,1002.90
2016-09-04T09:32:59.308Z,1003.00
2016-09-04T09:37:56.755Z,1003.08
2016-09-04T09:42:53.141Z,1003.21
2016-09-04T09:47:49.814Z,1003.16
2016-09-04T09:52:46.406Z,1003.12
2016-09-04T09:57:43.078Z,1003.10
2016-09-04T10:02:40.885Z,1003.19
2016-09-04T10:07:37.227Z,1002.90
2016-09-04T10:12:33.913Z,1003.07
2016-09-04T10:17:30.530Z,1003.03
2016-09-04T10:22:33.600Z,1002.82
2016-09-04T10:27:29.371Z,1002.80
2016-09-04T10:32:26.119Z,1002.69
2016-09-04T10:37:23.158Z,1002.72
2016-09-04T10:42:19.856Z,1002.66
2016-09-04T10:47:17.032Z,1002.58
2016-09-04T10:52:13.432Z,1002.58
2016-09-04T10:57:10.085Z,1002.28
2016-09-04T11:02:06.863Z,1002.11
2016-09-04T11:07:03.693Z,1002.04
2016-09-04T11:12:00.447Z,1002.28
2016-09-04T11:16:57.028Z,1002.35
2016-09-04T11:21:53.692Z,1002.32
2016-09-04T11:26:50.246Z,1002.36
2016-09-04T11:31:46.710Z,1002.39
2016-09-04T11:36:45.785Z,1002.48
2016-09-04T11:41:41.691Z,1002.32
2016-09-04T11:46:40.548Z,1002.23
2016-09-04T11:51:36.992Z,1002.28
2016-09-04T11:56:33.518Z,1002.50
2016-09-04T12:01:31.567Z,1002.56
2016-09-04T12:06:27.920Z,1002.31
2016-09-04T12:11:24.713Z,1002.24
2016-09-04T12:16:21.409Z,1001.98
2016-09-04T12:21:18.129Z,1001.93
2016-09-04T12:26:15.762Z,1001.79
2016-09-04T12:31:12.111Z,1001.77
2016-09-04T12:36:08.739Z,1001.71
2016-09-04T12:41:05.347Z,1001.53
2016-09-04T12:46:01.997Z,1001.47
2016-09-04T12:50:58.668Z,1001.31
2016-09-04T12:55:56.822Z,1001.37
2016-09-04T13:00:53.238Z,1001.38
2016-09-04T13:05:49.880Z,1001.46
2016-09-04T13:10:46.588Z,1001.49
2016-09-04T13:15:43.210Z,1001.57
2016-09-04T13:20:39.855Z,1001.74
2016-09-04T13:25:36.420Z,1001.63
2016-09-04T13:30:33.084Z,1001.58
2016-09-04T13:35:30.026Z,1001.53
2016-09-04T13:40:26.830Z,1001.63
2016-09-04T13:45:23.375Z,1001.73
2016-09-04T13:50:20.292Z,1001.57
2016-09-04T13:55:18.153Z,1001.78
2016-09-04T14:00:14.426Z,1001.84
2016-09-04T14:05:11.058Z,1001.77
2016-09-04T14:10:07.868Z,1001.82
2016-09-04T14:15:06.080Z,1001.69
2016-09-04T14:20:02.686Z,1001.76
2016-09-04T14:24:59.409Z,1001.90
2016-09-04T14:29:56.417Z,1002.05
2016-09-04T14:34:52.885Z,1002.05
2016-09-04T14:39:50.161Z,1002.18
2016-09-04T14:44:47.008Z,1002.23
2016-09-04T14:49:44.253Z,1002.27
2016-09-04T14:54:42.420Z,1002.31
2016-09-04T14:59:38.968Z,1002.27
2016-09-04T15:04:38.179Z,1002.41
2016-09-04T15:09:34.258Z,1002.47
2016-09-04T15:14:30.758Z,1002.50
2016-09-04T15:19:28.849Z,1002.52
2016-09-04T15:24:25.203Z,1002.52
2016-09-04T15:29:21.800Z,1002.62
2016-09-04T15:34:18.610Z,1002.58
2016-09-04T15:39:15.332Z,1002.70
2016-09-04T15:44:11.813Z,1002.84
2016-09-04T15:49:08.305Z,1002.96
2016-09-04T15:54:04.960Z,1002.89
2016-09-04T15:59:01.887Z,1002.80
2016-09-04T16:04:01.354Z,1002.87
2016-09-04T16:08:57.279Z,1002.98
2016-09-04T16:13:53.705Z,1003.09
2016-09-04T16:18:50.274Z,1003.06
2016-09-04T16:23:47.003Z,1003.16
2016-09-04T16:28:43.874Z,1003.38
2016-09-04T16:33:41.460Z,1003.61
2016-09-04T16:38:38.002Z,1003.65
2016-09-04T16:43:37.930Z,1003.82
2016-09-04T16:48:33.762Z,1003.69
2016-09-04T16:53:31.721Z,1003.68
2016-09-04T16:58:28.120Z,1003.72
2016-09-04T17:03:25.137Z,1003.68
2016-09-04T17:08:21.731Z,1003.79
2016-09-04T17:13:18.227Z,1003.76
2016-09-04T17:18:14.829Z,1003.76
2016-09-04T17:23:11.901Z,1003.76
2016-09-04T17:28:08.396Z,1003.78
2016-09-04T17:33:05.010Z,1003.67
2016-09-04T17:38:01.876Z,1003.85
2016-09-04T17:43:01.188Z,1003.81
2016-09-04T17:47:57.271Z,1003.80
2016-09-04T17:52:53.791Z,1003.75
2016-09-04T17:57:50.411Z,1003.77
2016-09-04T18:02:47.483Z,1003.78
2016-09-04T18:07:44.718Z,1003.86
2016-09-04T18:12:41.920Z,1003.87
2016-09-04T18:17:39.074Z,1003.90
2016-09-04T18:22:35.997Z,1003.98
2016-09-04T18:27:32.954Z,1004.01
2016-09-04T18:32:29.852Z,1004.23
2016-09-04T18:37:26.783Z,1004.12
2016-09-04T18:42:23.936Z,1004.16
2016-09-04T18:47:20.891Z,1004.30
2016-09-04T18:52:17.754Z,1004.30
2016-09-04T18:57:14.744Z,1004.43
2016-09-04T19:02:11.955Z,1004.54
2016-09-04T19:07:08.519Z,1004.71
2016-09-04T19:12:05.627Z,1004.76
2016-09-04T19:17:02.703Z,1004.79
2016-09-04T19:21:59.341Z,1004.72
2016-09-04T19:26:58.989Z,1004.82
2016-09-04T19:31:54.998Z,1004.84
2016-09-04T19:36:53.210Z,1004.91
2016-09-04T19:41:49.490Z,1004.90
2016-09-04T19:46:47.439Z,1004.96
2016-09-04T19:51:44.149Z,1004.93
2016-09-04T19:56:40.927Z,1004.96
2016-09-04T20:01:40.205Z,1005.01
2016-09-04T20:06:36.482Z,1005.09
2016-09-04T20:11:33.118Z,1005.20
2016-09-04T20:16:32.475Z,1005.19
2016-09-04T20:21:28.967Z,1005.13
2016-09-04T20:26:25.513Z,1005.18
2016-09-04T20:31:22.601Z,1005.32
2016-09-04T20:36:19.167Z,1005.25
2016-09-04T20:41:17.509Z,1005.33
2016-09-04T20:46:14.135Z,1005.30
2016-09-04T20:51:11.016Z,1005.24
2016-09-04T20:56:07.595Z,1005.24
2016-09-04T21:01:04.567Z,1005.39
2016-09-04T21:06:01.569Z,1005.36
2016-09-04T21:10:58.422Z,1005.52
2016-09-04T21:15:55.276Z,1005.46
2016-09-04T21:20:51.849Z,1005.36
2016-09-04T21:25:48.434Z,1005.62
2016-09-04T21:30:44.986Z,1005.63
2016-09-04T21:35:41.536Z,1005.66
2016-09-04T21:40:40.476Z,1005.68
2016-09-04T21:45:36.367Z,1005.61
2016-09-04T21:50:32.955Z,1005.46
2016-09-04T21:55:29.627Z,1005.68
2016-09-04T22:00:26.290Z,1005.67
2016-09-04T22:05:22.451Z,1005.77
2016-09-04T22:10:19.255Z,1005.78
2016-09-04T22:15:16.493Z,1005.80
2016-09-04T22:20:13.100Z,1005.90
2016-09-04T22:25:09.716Z,1005.87
2016-09-04T22:30:06.493Z,1005.85
2016-09-04T22:35:03.017Z,1005.92
2016-09-04T22:40:00.377Z,1005.87
2016-09-04T22:44:57.092Z,1005.86
2016-09-04T22:49:53.609Z,1005.97
2016-09-04T22:54:50.224Z,1006.02
2016-09-04T22:59:46.942Z,1006.01
2016-09-04T23:04:43.543Z,1005.99
2016-09-04T23:09:40.600Z,1006.05
2016-09-04T23:14:36.869Z,1006.01
2016-09-04T23:19:33.219Z,1006.12
2016-09-04T23:24:29.614Z,1006.09
2016-09-04T23:29:26.482Z,1006.19
2016-09-04T23:34:25.679Z,1006.25
2016-09-04T23:39:22.358Z,1006.13
2016-09-04T23:44:19.223Z,1006.08
2016-09-04T23:49:15.879Z,1006.20
2016-09-04T23:54:12.378Z,1006.14
2016-09-04T23:59:09.187Z,1006.23
